Time;durP1;ratioP1;P1;durP2;ratioP2;P2;SDS_P1;SDS_P2;PMS_P1;PMS_P2;Temp;Humidity;BMP_temperature;BMP_pressure;BME280_temperature;BME280_humidity;BME280_pressure;Samples;Min_cycle;Max_cycle;Signal;HPM_P1;HPM_P2
2021/06/23 00:03:20;;;;;;;13.00;5.13;;;17.20;97.30;;;;;;4918246;29;20476;-87
2021/06/23 00:06:21;;;;;;;11.90;6.00;;;17.10;97.30;;;;;;4931601;29;20429;-88
2021/06/23 00:08:50;;;;;;;11.90;4.63;;;17.20;97.30;;;;;;4902535;29;20589;-88
2021/06/23 00:11:40;;;;;;;6.93;4.60;;;17.10;97.30;;;;;;4902874;29;20418;-88
2021/06/23 01:03:19;;;;;;;7.77;5.03;;;17.00;97.30;;;;;;4920504;29;20524;-91
2021/06/23 01:05:51;;;;;;;15.60;6.30;;;17.00;97.30;;;;;;4904613;29;20512;-91
2021/06/23 01:08:20;;;;;;;14.97;5.80;;;17.10;97.30;;;;;;4906145;29;20425;-91
2021/06/23 01:10:51;;;;;;;7.53;5.07;;;17.20;97.30;;;;;;4906460;29;20544;-91
2021/06/23 01:14:00;;;;;;;11.50;5.83;;;17.20;97.30;;;;;;4923821;29;20444;-91
2021/06/23 01:16:31;;;;;;;11.30;5.30;;;17.20;97.30;;;;;;4922403;29;20425;-91
2021/06/23 01:19:01;;;;;;;10.63;5.27;;;17.20;97.30;;;;;;4906038;29;20416;-91
2021/06/23 01:21:30;;;;;;;10.37;5.13;;;17.20;97.30;;;;;;4906868;29;20452;-91
2021/06/23 01:24:09;;;;;;;10.90;5.00;;;17.10;97.30;;;;;;4906099;29;20440;-91
2021/06/23 01:26:38;;;;;;;14.83;5.60;;;17.10;97.30;;;;;;4904807;29;20415;-91
2021/06/23 01:29:10;;;;;;;6.57;4.90;;;17.10;97.30;;;;;;4905128;29;20425;-91
2021/06/23 01:38:02;;;;;;;9.60;5.90;;;17.00;97.30;;;;;;4944940;23;20507;-91
2021/06/23 01:40:31;;;;;;;11.03;5.93;;;17.00;97.30;;;;;;4922227;29;20459;-91
2021/06/23 01:43:20;;;;;;;9.87;6.10;;;17.00;97.30;;;;;;4922481;29;20430;-91
2021/06/23 01:45:49;;;;;;;12.30;5.70;;;17.00;97.30;;;;;;4923534;29;20916;-91
2021/06/23 01:48:29;;;;;;;6.37;5.57;;;17.00;97.30;;;;;;4923398;29;20978;-91
2021/06/23 01:51:11;;;;;;;8.10;5.57;;;17.00;97.30;;;;;;4923305;29;20427;-91
2021/06/23 01:53:49;;;;;;;12.73;6.03;;;17.10;97.30;;;;;;4923328;29;20444;-91
2021/06/23 01:56:20;;;;;;;10.03;5.90;;;17.00;97.30;;;;;;4924151;29;20400;-91
2021/06/23 01:58:49;;;;;;;8.80;5.73;;;17.00;97.30;;;;;;4924376;29;20463;-91
2021/06/23 02:01:40;;;;;;;8.13;5.40;;;17.00;97.30;;;;;;4924481;29;20460;-91
2021/06/23 02:04:18;;;;;;;14.50;6.20;;;17.00;97.30;;;;;;4924094;29;20436;-91
2021/06/23 02:06:50;;;;;;;11.97;6.00;;;17.00;97.30;;;;;;4924838;29;20404;-92
2021/06/23 02:09:49;;;;;;;9.03;6.03;;;17.00;97.30;;;;;;4924447;29;20970;-92
2021/06/23 02:13:11;;;;;;;15.20;5.93;;;17.00;97.30;;;;;;4923242;29;20451;-91
2021/06/23 02:15:40;;;;;;;13.40;6.40;;;17.00;97.30;;;;;;4938664;29;20431;-91
2021/06/23 02:18:30;;;;;;;8.53;5.70;;;17.00;97.30;;;;;;4922856;29;20732;-91
2021/06/23 02:21:11;;;;;;;12.03;6.37;;;17.00;97.30;;;;;;4922134;29;20468;-91
2021/06/23 02:27:12;;;;;;;7.87;5.60;;;17.00;97.30;;;;;;4862454;29;20414;-91
2021/06/23 02:29:50;;;;;;;11.97;5.90;;;16.90;97.30;;;;;;4859366;29;20509;-91
2021/06/23 02:32:28;;;;;;;9.63;5.93;;;16.90;97.30;;;;;;4863047;29;20399;-90
2021/06/23 02:35:18;;;;;;;12.70;6.43;;;16.90;97.30;;;;;;4877037;29;20487;-91
2021/06/23 02:38:10;;;;;;;13.20;7.20;;;16.80;97.30;;;;;;4875969;29;20468;-91
2021/06/23 02:40:41;;;;;;;12.67;6.50;;;16.80;97.30;;;;;;4922860;29;20459;-91
2021/06/23 02:45:49;;;;;;;10.70;6.70;;;16.80;97.30;;;;;;5125946;23;20510;-91
2021/06/23 02:48:20;;;;;;;12.20;5.67;;;16.80;97.30;;;;;;4923798;29;20436;-91
2021/06/23 02:51:19;;;;;;;12.60;6.93;;;16.80;97.30;;;;;;4923672;29;20515;-92
2021/06/23 02:53:49;;;;;;;16.57;6.73;;;16.90;97.30;;;;;;4923737;29;20455;-90
2021/06/23 02:56:19;;;;;;;10.67;7.50;;;16.90;97.30;;;;;;4939441;29;20943;-91
2021/06/23 02:58:50;;;;;;;14.17;8.23;;;16.90;97.30;;;;;;4922097;29;20506;-91
2021/06/23 03:01:20;;;;;;;9.50;7.30;;;16.90;97.30;;;;;;4922326;29;20464;-91
2021/06/23 03:03:51;;;;;;;14.00;7.97;;;16.90;97.30;;;;;;4922518;29;20447;-91
2021/06/23 03:06:47;;;;;;;9.00;6.60;;;16.90;97.30;;;;;;4937709;29;20932;-91
2021/06/23 03:09:22;;;;;;;12.77;6.60;;;16.80;97.30;;;;;;4921851;29;20412;-91
2021/06/23 03:11:50;;;;;;;21.90;7.63;;;16.80;97.30;;;;;;4920681;29;20427;-91
2021/06/23 03:14:19;;;;;;;15.40;7.20;;;16.80;97.30;;;;;;4921390;29;20818;-91
2021/06/23 03:16:48;;;;;;;10.93;7.47;;;16.80;97.30;;;;;;4921853;29;20515;-91
2021/06/23 03:19:40;;;;;;;11.47;7.20;;;16.80;97.30;;;;;;4922004;29;20850;-91
2021/06/23 03:22:11;;;;;;;15.67;8.17;;;16.70;97.30;;;;;;4912043;29;20495;-91
2021/06/23 03:24:40;;;;;;;15.03;9.33;;;16.70;97.30;;;;;;4921711;29;20522;-91
2021/06/23 03:27:09;;;;;;;17.03;8.43;;;16.70;97.30;;;;;;4921692;29;20431;-91
2021/06/23 03:29:41;;;;;;;16.77;8.43;;;16.70;97.30;;;;;;4922889;29;20426;-91
2021/06/23 03:32:10;;;;;;;14.70;7.30;;;16.60;97.30;;;;;;4923174;29;20975;-92
2021/06/23 03:35:40;;;;;;;;;;;;;;;;;;;;;
2021/06/23 03:54:09;;;;;;;20.43;10.63;;;16.50;97.30;;;;;;5710586;23;20493;-88
2021/06/23 03:56:40;;;;;;;24.00;9.93;;;16.50;97.30;;;;;;4883160;29;20418;-91
2021/06/23 03:59:11;;;;;;;18.80;10.63;;;16.40;97.30;;;;;;4883174;29;20418;-91
2021/06/23 04:04:48;;;;;;;24.93;10.80;;;16.40;97.30;;;;;;4900934;29;20440;-91
2021/06/23 04:07:20;;;;;;;14.87;10.70;;;16.40;97.30;;;;;;4883767;29;20421;-91
2021/06/23 04:09:51;;;;;;;17.60;12.13;;;16.40;97.30;;;;;;4884014;29;20418;-91
2021/06/23 04:25:41;;;;;;;19.40;11.07;;;16.50;97.30;;;;;;5993691;23;20410;-90
2021/06/23 04:28:10;;;;;;;20.27;10.83;;;16.50;97.30;;;;;;4902932;29;20427;-92
2021/06/23 04:34:08;;;;;;;18.43;11.17;;;16.50;97.30;;;;;;4903669;29;20409;-91
2021/06/23 04:36:40;;;;;;;17.90;11.57;;;16.50;97.30;;;;;;4887427;29;20425;-91
2021/06/23 04:42:30;;;;;;;17.47;8.07;;;16.50;97.30;;;;;;4904112;29;20473;-91
2021/06/23 04:47:29;;;;;;;19.50;8.90;;;16.70;97.30;;;;;;4939384;29;20554;-91
2021/06/23 04:50:08;;;;;;;15.27;8.93;;;16.70;97.30;;;;;;4924130;29;20990;-90
2021/06/23 04:52:40;;;;;;;16.97;9.43;;;16.60;97.30;;;;;;4924510;29;20442;-91
2021/06/23 04:55:09;;;;;;;21.37;9.70;;;16.60;97.30;;;;;;4905955;29;20977;-91
2021/06/23 05:04:19;;;;;;;9.57;8.20;;;16.60;97.30;;;;;;4930627;23;20566;-67
2021/06/23 05:06:44;;;;;;;12.50;8.20;;;16.60;97.30;;;;;;4935330;29;20498;-65
2021/06/23 05:09:10;;;;;;;15.87;8.10;;;16.60;97.30;;;;;;4935642;29;20263;-65
2021/06/23 05:11:36;;;;;;;12.27;8.67;;;16.70;97.30;;;;;;4935001;29;20192;-65
2021/06/23 05:14:02;;;;;;;22.80;8.13;;;16.60;97.30;;;;;;4935547;29;20601;-65
2021/06/23 05:16:29;;;;;;;16.10;8.63;;;16.60;97.30;;;;;;4935766;29;20646;-65
2021/06/23 05:18:55;;;;;;;15.37;8.07;;;16.70;97.30;;;;;;4918406;29;20431;-65
2021/06/23 05:21:21;;;;;;;12.90;7.90;;;16.70;97.30;;;;;;4935000;29;20469;-66
2021/06/23 05:23:47;;;;;;;18.60;8.47;;;16.70;97.30;;;;;;4917847;29;20180;-67
2021/06/23 05:26:12;;;;;;;12.33;7.20;;;16.80;97.30;;;;;;4935356;29;20412;-65
2021/06/23 05:28:39;;;;;;;16.33;8.10;;;16.80;97.30;;;;;;4934848;29;20251;-66
2021/06/23 05:31:05;;;;;;;11.33;7.67;;;16.80;97.30;;;;;;4934830;29;20207;-65
2021/06/23 05:33:30;;;;;;;16.00;8.00;;;16.90;97.30;;;;;;4935851;29;20408;-66
2021/06/23 05:35:56;;;;;;;11.03;7.40;;;16.90;97.30;;;;;;4935025;29;20924;-65
2021/06/23 05:38:21;;;;;;;13.50;7.90;;;16.90;97.30;;;;;;4934333;29;20195;-65
2021/06/23 05:40:47;;;;;;;11.30;7.33;;;16.90;97.30;;;;;;4933826;29;20290;-66
2021/06/23 05:43:12;;;;;;;17.57;8.33;;;16.90;97.30;;;;;;4917698;29;20542;-65
2021/06/23 05:45:38;;;;;;;13.10;7.50;;;17.00;97.30;;;;;;4917951;29;20180;-66
2021/06/23 05:48:05;;;;;;;14.40;8.10;;;17.00;97.30;;;;;;4934921;29;20187;-66
2021/06/23 05:50:31;;;;;;;14.10;8.57;;;17.00;97.30;;;;;;4917337;29;20548;-66
2021/06/23 05:52:57;;;;;;;11.77;7.93;;;17.00;97.30;;;;;;4917721;29;20434;-66
2021/06/23 05:55:22;;;;;;;15.07;7.70;;;17.00;97.30;;;;;;4934822;29;20423;-67
2021/06/23 05:57:52;;;;;;;18.50;7.40;;;16.90;97.30;;;;;;4924296;29;20644;-66
2021/06/23 06:00:20;;;;;;;19.10;7.97;;;17.00;97.30;;;;;;4930563;29;20239;-66
2021/06/23 06:02:47;;;;;;;13.00;8.17;;;17.00;97.30;;;;;;4934733;29;20842;-66
2021/06/23 06:05:13;;;;;;;13.67;7.73;;;17.00;97.30;;;;;;4934330;29;20467;-65
2021/06/23 06:07:38;;;;;;;14.33;8.17;;;17.00;97.30;;;;;;4923044;29;20495;-66
2021/06/23 06:10:04;;;;;;;20.17;8.37;;;17.00;97.30;;;;;;4914384;29;20424;-66
2021/06/23 06:12:30;;;;;;;12.40;8.20;;;17.00;97.30;;;;;;4915551;29;20196;-66
2021/06/23 06:14:55;;;;;;;13.43;7.97;;;17.00;97.30;;;;;;4914399;23;20231;-69
2021/06/23 06:17:21;;;;;;;17.33;8.40;;;17.00;97.30;;;;;;4932695;29;20261;-68
2021/06/23 06:19:46;;;;;;;15.53;7.53;;;17.10;97.30;;;;;;4934113;29;20172;-68
2021/06/23 06:22:12;;;;;;;11.67;7.67;;;17.10;97.30;;;;;;4934427;29;20222;-68
2021/06/23 06:24:37;;;;;;;15.10;7.57;;;17.10;97.30;;;;;;4934799;29;20463;-68
2021/06/23 06:27:04;;;;;;;10.73;7.17;;;17.10;97.30;;;;;;4930614;29;20239;-68
2021/06/23 06:29:29;;;;;;;15.83;7.60;;;17.10;97.30;;;;;;4888477;29;20231;-68
2021/06/23 06:31:55;;;;;;;12.60;8.07;;;17.10;97.30;;;;;;4883019;29;20533;-68
2021/06/23 06:34:20;;;;;;;17.73;7.60;;;17.10;97.30;;;;;;4897092;29;20264;-68
2021/06/23 06:36:46;;;;;;;12.53;7.57;;;17.10;97.30;;;;;;4880459;29;20177;-68
2021/06/23 06:39:12;;;;;;;14.87;7.63;;;17.10;97.30;;;;;;4888391;29;20736;-68
2021/06/23 06:41:37;;;;;;;18.03;7.10;;;17.20;97.30;;;;;;4902691;29;20214;-68
2021/06/23 06:44:03;;;;;;;21.40;6.80;;;17.10;97.30;;;;;;4897206;29;20685;-68
2021/06/23 06:46:29;;;;;;;13.83;7.03;;;17.10;97.30;;;;;;4878923;29;20272;-68
2021/06/23 06:48:54;;;;;;;12.23;6.60;;;17.00;97.30;;;;;;4882472;29;20185;-68
2021/06/23 06:51:20;;;;;;;15.10;7.57;;;17.00;97.30;;;;;;4913435;29;20207;-68
2021/06/23 06:53:45;;;;;;;11.77;7.63;;;17.00;97.30;;;;;;4914627;29;20188;-68
2021/06/23 06:56:11;;;;;;;12.10;6.30;;;17.00;97.30;;;;;;4914442;29;20173;-68
2021/06/23 06:58:37;;;;;;;18.50;8.10;;;17.00;97.30;;;;;;4897765;29;20252;-68
2021/06/23 07:01:02;;;;;;;12.67;6.77;;;17.00;97.30;;;;;;4914433;29;20707;-68
2021/06/23 07:03:29;;;;;;;16.93;7.80;;;17.00;97.30;;;;;;4914029;29;20244;-68
2021/06/23 07:05:55;;;;;;;17.90;8.40;;;17.00;97.30;;;;;;4897235;29;20660;-68
2021/06/23 07:08:20;;;;;;;16.97;7.40;;;17.00;97.30;;;;;;4914643;29;20452;-68
2021/06/23 07:10:46;;;;;;;8.93;6.40;;;17.00;97.30;;;;;;4914669;29;20204;-68
2021/06/23 07:13:11;;;;;;;14.27;6.77;;;17.00;97.30;;;;;;4898671;29;20192;-68
2021/06/23 07:15:37;;;;;;;14.73;7.13;;;17.10;97.30;;;;;;4895087;29;20225;-67
2021/06/23 07:18:03;;;;;;;15.57;6.70;;;17.10;97.30;;;;;;4895080;29;20184;-68
2021/06/23 07:20:29;;;;;;;25.70;7.80;;;17.20;97.30;;;;;;4893625;29;20191;-67
2021/06/23 07:22:54;;;;;;;13.63;7.20;;;17.20;97.30;;;;;;4886665;29;20797;-67
2021/06/23 07:25:21;;;;;;;11.30;6.43;;;17.30;97.30;;;;;;4895297;29;20229;-67
2021/06/23 07:27:47;;;;;;;21.50;7.93;;;17.20;97.30;;;;;;4895124;29;20209;-68
2021/06/23 07:30:12;;;;;;;14.80;7.10;;;17.30;97.30;;;;;;4893308;29;20425;-67
2021/06/23 07:32:50;;;;;;;11.63;7.23;;;17.30;97.30;;;;;;4913861;29;20440;-68
2021/06/23 07:38:02;;;;;;;13.70;7.27;;;17.40;97.30;;;;;;4926480;29;20422;-68
2021/06/23 07:40:43;;;;;;;14.10;7.27;;;17.40;97.30;;;;;;4906210;29;20433;-68
2021/06/23 07:43:10;;;;;;;13.03;7.60;;;17.40;97.30;;;;;;4912701;29;20444;-68
2021/06/23 07:45:36;;;;;;;16.97;8.33;;;17.40;97.30;;;;;;4912084;29;20423;-67
2021/06/23 07:48:02;;;;;;;20.33;8.90;;;17.30;97.30;;;;;;4911785;29;20425;-68
2021/06/23 07:50:35;;;;;;;17.17;8.57;;;17.30;97.30;;;;;;4911736;29;20416;-67
2021/06/23 07:53:15;;;;;;;16.97;8.70;;;17.40;97.30;;;;;;4895231;29;20951;-68
2021/06/23 07:55:52;;;;;;;17.63;8.30;;;17.40;97.30;;;;;;4913878;29;21124;-68
2021/06/23 08:09:11;;;;;;;16.27;8.57;;;17.40;97.30;;;;;;4914348;29;20796;-68
2021/06/23 08:11:42;;;;;;;14.87;8.67;;;17.30;97.30;;;;;;4915531;29;20443;-68
2021/06/23 08:14:08;;;;;;;17.40;10.60;;;17.40;97.30;;;;;;4932519;29;20540;-68
2021/06/23 08:16:36;;;;;;;22.83;10.73;;;17.40;97.30;;;;;;4915119;29;20470;-68
2021/06/23 08:19:02;;;;;;;19.23;10.50;;;17.40;97.30;;;;;;4903792;29;20441;-68
2021/06/23 08:21:27;;;;;;;17.30;10.50;;;17.40;97.30;;;;;;4912688;29;20461;-68
2021/06/23 08:23:54;;;;;;;22.90;10.00;;;17.40;97.30;;;;;;4896709;29;20423;-68
2021/06/23 08:26:20;;;;;;;29.23;10.43;;;17.40;97.30;;;;;;4913691;29;20165;-68
2021/06/23 08:28:46;;;;;;;17.70;10.43;;;17.30;97.30;;;;;;4884065;29;20794;-68
2021/06/23 08:31:11;;;;;;;15.33;9.43;;;17.30;97.30;;;;;;4896152;29;20691;-68
2021/06/23 08:33:37;;;;;;;19.57;10.93;;;17.30;97.30;;;;;;4913518;29;20490;-68
2021/06/23 08:36:03;;;;;;;17.03;10.00;;;17.30;97.30;;;;;;4896435;29;20185;-68
2021/06/23 08:38:29;;;;;;;28.77;9.87;;;17.20;97.30;;;;;;4912573;29;20598;-68
2021/06/23 08:40:55;;;;;;;17.87;10.13;;;17.20;97.30;;;;;;4913358;29;20448;-68
2021/06/23 08:43:22;;;;;;;24.80;10.67;;;17.20;97.30;;;;;;4895984;29;20564;-68
2021/06/23 08:45:48;;;;;;;20.80;10.90;;;17.20;97.30;;;;;;4896308;29;20417;-68
2021/06/23 08:48:15;;;;;;;15.47;9.10;;;17.20;97.30;;;;;;4912784;29;20438;-68
2021/06/23 08:50:41;;;;;;;15.57;10.70;;;17.10;97.30;;;;;;4913376;29;20849;-68
2021/06/23 08:53:08;;;;;;;19.67;10.93;;;17.10;97.30;;;;;;4913099;29;20440;-69
2021/06/23 08:55:34;;;;;;;16.17;9.87;;;17.00;97.30;;;;;;4913146;29;20409;-69
2021/06/23 08:58:00;;;;;;;16.33;9.97;;;17.00;97.30;;;;;;4895508;29;20433;-69
2021/06/23 09:00:26;;;;;;;15.45;10.25;;;17.00;97.30;;;;;;4894362;29;20656;-69
2021/06/23 09:02:57;;;;;;;16.10;9.67;;;17.00;97.30;;;;;;4912974;29;20905;-69
2021/06/23 09:05:23;;;;;;;19.27;10.37;;;17.00;97.30;;;;;;4895924;29;20406;-69
2021/06/23 09:07:55;;;;;;;20.53;11.00;;;17.00;97.30;;;;;;4896067;29;20423;-69
2021/06/23 09:10:24;;;;;;;22.23;12.20;;;16.90;97.30;;;;;;4912014;29;20181;-68
2021/06/23 09:13:06;;;;;;;18.20;10.77;;;16.90;97.30;;;;;;4896142;29;20421;-69
2021/06/23 09:15:42;;;;;;;19.90;10.50;;;16.80;97.30;;;;;;4896419;29;20543;-69
2021/06/23 09:18:23;;;;;;;23.03;11.43;;;16.80;97.30;;;;;;4916911;29;20419;-69
2021/06/23 09:20:52;;;;;;;20.60;11.20;;;16.80;97.30;;;;;;4895889;29;20464;-69
2021/06/23 09:23:40;;;;;;;18.53;11.73;;;16.80;97.30;;;;;;4916582;29;20421;-69
2021/06/23 09:26:35;;;;;;;19.60;10.57;;;16.70;97.30;;;;;;4915292;29;20444;-68
2021/06/23 09:29:13;;;;;;;18.73;10.90;;;16.60;97.30;;;;;;4879426;29;20418;-69
2021/06/23 09:31:51;;;;;;;18.30;11.50;;;16.50;97.30;;;;;;4897382;29;20448;-69
2021/06/23 09:34:44;;;;;;;20.83;10.30;;;16.50;97.30;;;;;;4897365;29;20921;-68
2021/06/23 09:37:26;;;;;;;23.13;10.33;;;16.50;97.30;;;;;;4880771;29;20429;-68
2021/06/23 09:40:10;;;;;;;18.43;11.07;;;16.50;97.30;;;;;;4922283;29;20430;-68
2021/06/23 09:42:41;;;;;;;26.20;11.73;;;16.50;97.30;;;;;;4934642;29;20966;-69
2021/06/23 09:45:10;;;;;;;21.10;10.37;;;16.50;97.30;;;;;;4918001;29;20420;-69
2021/06/23 09:47:36;;;;;;;16.13;10.10;;;16.50;97.30;;;;;;4912173;29;20454;-69
2021/06/23 09:50:05;;;;;;;17.90;11.30;;;16.50;97.30;;;;;;4880534;29;20465;-68
2021/06/23 09:52:30;;;;;;;21.03;11.70;;;16.60;97.30;;;;;;4880150;29;20790;-68
2021/06/23 09:54:58;;;;;;;27.43;10.33;;;16.60;97.30;;;;;;4880284;29;20798;-68
2021/06/23 09:57:24;;;;;;;22.73;11.57;;;16.60;97.30;;;;;;4906250;29;20207;-68
2021/06/23 09:59:53;;;;;;;20.90;11.67;;;16.60;97.30;;;;;;4919595;29;20919;-68
2021/06/23 10:02:34;;;;;;;17.77;10.33;;;16.70;97.30;;;;;;4917407;29;20624;-68
2021/06/23 10:05:20;;;;;;;18.53;10.37;;;16.70;97.30;;;;;;4917468;29;20455;-68
2021/06/23 10:07:49;;;;;;;18.33;10.83;;;16.60;97.30;;;;;;4932444;29;20876;-68
2021/06/23 10:10:17;;;;;;;16.23;11.07;;;16.60;97.30;;;;;;4915537;29;20755;-68
2021/06/23 10:12:45;;;;;;;16.93;11.77;;;16.60;97.30;;;;;;4915431;29;20409;-68
2021/06/23 10:15:12;;;;;;;18.70;9.40;;;16.60;97.30;;;;;;4915478;29;20592;-68
2021/06/23 10:17:38;;;;;;;25.90;8.63;;;16.60;97.30;;;;;;4915380;29;20440;-68
2021/06/23 10:20:06;;;;;;;20.03;10.87;;;16.70;97.30;;;;;;4897289;29;20432;-68
2021/06/23 10:22:32;;;;;;;16.83;9.97;;;16.80;97.30;;;;;;4915780;29;20738;-68
2021/06/23 10:25:03;;;;;;;21.13;11.00;;;16.80;97.30;;;;;;4913945;29;20972;-68
2021/06/23 10:27:32;;;;;;;17.73;11.17;;;16.90;97.30;;;;;;4914565;29;20405;-68
2021/06/23 10:29:59;;;;;;;18.37;10.90;;;16.90;97.30;;;;;;4919716;29;20929;-68
2021/06/23 10:32:25;;;;;;;15.70;10.07;;;16.90;97.30;;;;;;4934291;29;20847;-68
2021/06/23 10:34:50;;;;;;;24.43;11.23;;;16.80;97.30;;;;;;4933802;29;20427;-68
2021/06/23 10:37:18;;;;;;;20.43;9.83;;;16.80;97.30;;;;;;4916929;29;20180;-68
2021/06/23 10:39:45;;;;;;;19.83;10.53;;;16.80;97.30;;;;;;4917944;29;20668;-68
2021/06/23 10:42:12;;;;;;;19.13;10.80;;;16.90;97.30;;;;;;4879033;29;20894;-68
2021/06/23 10:44:42;;;;;;;22.27;12.10;;;17.00;97.30;;;;;;4879146;29;20785;-67
2021/06/23 10:47:27;;;;;;;24.10;10.77;;;17.00;97.30;;;;;;4896229;29;20472;-68
2021/06/23 10:49:53;;;;;;;28.43;12.30;;;17.00;97.30;;;;;;4887546;29;20490;-68
2021/06/23 10:52:31;;;;;;;20.63;11.23;;;17.00;97.30;;;;;;4933834;29;20959;-68
2021/06/23 10:54:58;;;;;;;18.93;11.00;;;17.00;97.30;;;;;;4916695;29;20792;-68
2021/06/23 10:57:27;;;;;;;21.77;12.53;;;17.00;97.30;;;;;;4908777;29;20433;-68
2021/06/23 10:59:54;;;;;;;23.03;13.70;;;17.00;97.30;;;;;;4893150;29;20943;-68
2021/06/23 11:02:49;;;;;;;19.67;11.67;;;17.10;97.30;;;;;;4883901;29;20875;-68
2021/06/23 11:05:22;;;;;;;17.67;11.17;;;17.10;97.30;;;;;;4877201;29;20441;-68
2021/06/23 11:07:53;;;;;;;18.67;11.70;;;17.20;97.30;;;;;;4897627;29;20504;-68
2021/06/23 11:10:30;;;;;;;22.60;12.17;;;17.20;97.30;;;;;;4903992;29;20959;-68
2021/06/23 11:13:00;;;;;;;22.73;9.53;;;17.20;97.30;;;;;;4919958;29;20471;-68
2021/06/23 11:15:32;;;;;;;16.53;11.87;;;17.30;97.30;;;;;;4900099;29;20497;-68
2021/06/23 11:18:19;;;;;;;17.07;11.00;;;17.30;97.30;;;;;;4895042;29;20422;-69
2021/06/23 11:20:48;;;;;;;18.13;11.30;;;17.40;97.30;;;;;;4905078;29;20978;-69
2021/06/23 11:23:42;;;;;;;17.07;11.63;;;17.40;97.30;;;;;;4914330;29;20416;-70
2021/06/23 11:26:29;;;;;;;20.70;11.03;;;17.40;97.30;;;;;;4896289;29;20521;-70
2021/06/23 11:29:09;;;;;;;26.20;11.00;;;17.40;97.30;;;;;;4878794;29;20480;-69
2021/06/23 11:31:45;;;;;;;24.33;11.50;;;17.50;97.30;;;;;;4910641;29;20475;-69
2021/06/23 11:34:31;;;;;;;22.00;11.50;;;17.50;97.30;;;;;;4900856;29;20416;-69
2021/06/23 11:36:57;;;;;;;24.70;11.60;;;17.60;97.30;;;;;;4913471;29;21054;-69
2021/06/23 11:39:23;;;;;;;19.90;11.57;;;17.60;97.30;;;;;;4896433;29;20449;-69
2021/06/23 11:41:48;;;;;;;19.83;11.20;;;17.70;97.30;;;;;;4913876;29;20511;-69
2021/06/23 11:44:14;;;;;;;20.27;11.60;;;17.70;97.30;;;;;;4896612;29;20204;-68
2021/06/23 11:46:40;;;;;;;20.17;12.00;;;17.70;97.30;;;;;;4913158;29;20203;-69
2021/06/23 11:49:05;;;;;;;27.50;13.10;;;17.80;97.30;;;;;;4895626;29;20188;-69
2021/06/23 11:51:31;;;;;;;16.80;11.40;;;17.80;97.30;;;;;;4896418;29;20252;-69
2021/06/23 11:53:56;;;;;;;21.50;12.03;;;17.80;97.30;;;;;;4913604;29;20185;-69
2021/06/23 11:56:22;;;;;;;23.70;11.43;;;17.90;97.30;;;;;;4896857;29;20187;-68
2021/06/23 11:58:47;;;;;;;17.87;11.00;;;17.90;97.30;;;;;;4905447;29;20272;-66
2021/06/23 12:01:13;;;;;;;27.33;12.80;;;18.00;97.30;;;;;;4892088;29;20240;-68
2021/06/23 12:03:38;;;;;;;25.50;11.43;;;18.00;97.30;;;;;;4896378;29;20197;-68
2021/06/23 12:06:05;;;;;;;19.10;12.00;;;18.10;97.30;;;;;;4883929;29;20228;-67
2021/06/23 12:08:30;;;;;;;24.23;12.70;;;18.20;97.30;;;;;;4876151;29;20185;-68
2021/06/23 12:10:56;;;;;;;21.30;11.57;;;18.30;97.30;;;;;;4904691;29;20507;-67
2021/06/23 12:13:22;;;;;;;16.97;13.13;;;18.40;97.30;;;;;;4913999;29;20212;-68
2021/06/23 12:15:48;;;;;;;24.60;11.70;;;18.40;97.30;;;;;;4973345;23;20263;-67
2021/06/23 12:18:14;;;;;;;22.93;13.00;;;18.50;97.30;;;;;;4912458;29;20484;-68
2021/06/23 12:20:41;;;;;;;19.70;11.53;;;18.50;97.30;;;;;;4894915;29;20987;-68
2021/06/23 12:23:09;;;;;;;18.63;12.30;;;18.50;97.30;;;;;;4895950;29;20621;-68
2021/06/23 12:25:47;;;;;;;22.40;12.67;;;18.60;97.30;;;;;;4913733;29;20409;-68
2021/06/23 12:28:15;;;;;;;19.83;12.20;;;18.60;97.30;;;;;;4897026;29;20428;-69
2021/06/23 12:30:42;;;;;;;21.43;11.70;;;18.70;97.30;;;;;;4896473;29;21062;-68
2021/06/23 12:33:12;;;;;;;24.23;12.00;;;18.70;97.30;;;;;;4913766;29;20468;-68
2021/06/23 12:35:43;;;;;;;18.23;12.10;;;18.80;97.30;;;;;;4913836;29;20418;-68
2021/06/23 12:38:12;;;;;;;20.87;13.10;;;18.80;97.30;;;;;;4879514;29;20524;-68
2021/06/23 12:40:38;;;;;;;23.17;13.00;;;18.90;97.30;;;;;;4912739;29;20449;-68
2021/06/23 12:43:10;;;;;;;17.50;11.73;;;18.90;97.30;;;;;;4896545;29;20424;-68
2021/06/23 12:45:37;;;;;;;17.43;12.20;;;19.00;97.30;;;;;;4913634;29;20500;-69
2021/06/23 12:48:04;;;;;;;19.60;11.13;;;19.00;97.30;;;;;;4896158;29;20421;-69
2021/06/23 12:50:30;;;;;;;20.53;11.93;;;19.00;97.30;;;;;;4897226;29;20447;-69
2021/06/23 12:52:56;;;;;;;22.20;12.90;;;19.10;97.30;;;;;;4916751;29;20444;-69
2021/06/23 12:55:22;;;;;;;17.97;11.30;;;19.10;97.30;;;;;;4900364;29;20423;-68
2021/06/23 12:57:48;;;;;;;24.00;13.30;;;19.20;97.30;;;;;;4900038;29;20420;-68
2021/06/23 13:00:16;;;;;;;21.77;12.23;;;19.30;97.30;;;;;;4916895;29;20457;-69
2021/06/23 13:02:44;;;;;;;18.87;12.40;;;19.40;97.30;;;;;;4916359;29;20284;-68
2021/06/23 13:05:10;;;;;;;18.23;11.97;;;19.50;97.30;;;;;;4903017;29;20440;-69
2021/06/23 13:07:36;;;;;;;19.63;13.00;;;19.70;97.30;;;;;;4917036;29;20439;-69
2021/06/23 13:10:03;;;;;;;27.47;13.23;;;20.00;97.30;;;;;;4916873;29;20885;-69
2021/06/23 13:12:29;;;;;;;22.30;11.57;;;20.20;97.30;;;;;;4916871;29;20322;-69
2021/06/23 13:14:54;;;;;;;19.03;11.93;;;20.40;97.30;;;;;;4916601;29;20460;-69
2021/06/23 13:17:20;;;;;;;16.53;11.97;;;20.50;97.30;;;;;;4898940;29;20319;-69
2021/06/23 13:19:46;;;;;;;19.17;12.27;;;20.60;97.30;;;;;;4916897;29;20281;-69
2021/06/23 13:22:12;;;;;;;16.30;11.60;;;20.70;97.30;;;;;;4916308;29;20208;-69
2021/06/23 13:24:38;;;;;;;19.87;11.10;;;20.70;97.30;;;;;;4899712;29;20417;-69
2021/06/23 13:27:05;;;;;;;19.33;11.37;;;20.60;97.30;;;;;;4916784;29;20206;-69
2021/06/23 13:29:30;;;;;;;22.40;12.57;;;20.40;97.30;;;;;;4917059;29;20972;-69
2021/06/23 13:31:56;;;;;;;17.80;10.80;;;20.40;97.30;;;;;;4899286;29;20449;-69
2021/06/23 13:34:21;;;;;;;26.03;11.33;;;20.30;97.30;;;;;;4917018;29;20705;-69
2021/06/23 13:36:47;;;;;;;19.50;10.40;;;20.30;97.30;;;;;;4916970;29;20187;-69
2021/06/23 13:39:13;;;;;;;16.00;10.47;;;20.40;97.30;;;;;;4916787;29;20200;-69
2021/06/23 13:41:43;;;;;;;18.70;10.87;;;20.50;97.30;;;;;;4916742;29;20208;-69
2021/06/23 13:44:09;;;;;;;16.37;9.93;;;20.70;97.30;;;;;;4916785;29;20157;-69
2021/06/23 13:46:36;;;;;;;14.97;9.60;;;20.70;97.30;;;;;;4899655;29;20424;-70
2021/06/23 13:49:02;;;;;;;15.90;10.70;;;20.70;97.30;;;;;;4899852;29;20203;-69
2021/06/23 13:51:28;;;;;;;16.07;9.50;;;20.60;97.30;;;;;;4899587;29;20459;-69
2021/06/23 13:53:53;;;;;;;17.17;9.53;;;20.60;97.30;;;;;;4899714;29;20432;-69
2021/06/23 13:56:20;;;;;;;13.47;9.17;;;20.70;97.30;;;;;;4916466;29;20781;-69
2021/06/23 13:58:45;;;;;;;19.37;10.17;;;20.80;97.30;;;;;;4899480;29;20184;-69
2021/06/23 14:01:11;;;;;;;16.63;9.70;;;20.80;97.30;;;;;;4915860;29;20460;-69
2021/06/23 14:03:36;;;;;;;15.30;9.83;;;20.80;97.30;;;;;;4915599;29;20181;-69
2021/06/23 14:06:02;;;;;;;21.57;9.10;;;20.80;97.30;;;;;;4899554;29;20581;-69
2021/06/23 14:08:27;;;;;;;16.23;9.10;;;20.80;97.30;;;;;;4899065;29;20613;-69
2021/06/23 14:10:53;;;;;;;16.40;10.00;;;20.90;97.30;;;;;;4916128;29;20204;-69
2021/06/23 14:13:19;;;;;;;18.30;9.53;;;20.80;97.30;;;;;;4916137;29;20173;-69
2021/06/23 14:15:44;;;;;;;17.37;10.00;;;20.80;97.30;;;;;;4898735;29;20307;-69
2021/06/23 14:18:10;;;;;;;18.47;8.70;;;20.80;97.30;;;;;;4899315;29;20271;-69
2021/06/23 14:20:36;;;;;;;17.90;9.70;;;20.70;97.30;;;;;;4899071;29;20257;-69
2021/06/23 14:23:01;;;;;;;24.40;10.40;;;20.80;97.30;;;;;;4915842;29;20192;-69
2021/06/23 14:25:27;;;;;;;20.17;9.67;;;20.80;97.30;;;;;;4898504;29;20184;-69
2021/06/23 14:27:53;;;;;;;14.50;9.27;;;20.80;97.30;;;;;;4898620;29;20244;-68
2021/06/23 14:30:20;;;;;;;19.60;10.03;;;20.90;97.30;;;;;;4898923;29;20271;-69
2021/06/23 14:32:46;;;;;;;16.83;10.13;;;21.00;97.30;;;;;;4915512;29;20449;-69
2021/06/23 14:35:12;;;;;;;14.53;9.83;;;21.10;97.30;;;;;;4898338;29;20420;-69
2021/06/23 14:37:38;;;;;;;18.37;9.43;;;21.30;97.30;;;;;;4915323;29;20417;-69
2021/06/23 14:40:06;;;;;;;15.33;9.10;;;21.50;97.30;;;;;;4898566;29;20239;-70
2021/06/23 14:42:33;;;;;;;33.37;10.13;;;21.60;97.30;;;;;;4898486;29;20483;-69
2021/06/23 14:44:58;;;;;;;17.17;9.70;;;21.60;97.30;;;;;;4897676;29;20425;-69
2021/06/23 14:47:24;;;;;;;15.00;8.27;;;21.70;97.30;;;;;;4914962;29;20440;-70
2021/06/23 14:49:50;;;;;;;13.63;8.57;;;21.70;97.30;;;;;;4915398;29;20188;-70
2021/06/23 14:52:15;;;;;;;13.97;8.77;;;21.80;97.30;;;;;;4917618;29;20214;-69
2021/06/23 14:54:41;;;;;;;17.47;10.10;;;21.80;97.30;;;;;;4934256;29;20176;-69